Time;durP1;ratioP1;P1;durP2;ratioP2;P2;SDS_P1;SDS_P2;PMS_P1;PMS_P2;Temp;Humidity;BMP_temperature;BMP_pressure;BME280_temperature;BME280_humidity;BME280_pressure;Samples;Min_cycle;Max_cycle;Signal;HPM_P1;HPM_P2
2022/08/21 00:01:06;;;;;;;0.00;0.00;;;15.60;99.90;;;;;;5081217;28;20458;-73
2022/08/21 00:03:35;;;;;;;0.00;0.00;;;15.60;99.90;;;;;;5081268;28;20981;-73
2022/08/21 00:06:04;;;;;;;0.00;0.00;;;15.60;99.90;;;;;;5081743;28;20430;-72
2022/08/21 00:08:31;;;;;;;0.00;0.00;;;15.50;99.90;;;;;;5069765;28;20463;-74
2022/08/21 00:11:00;;;;;;;0.00;0.00;;;15.50;99.90;;;;;;5061498;28;21069;-74
2022/08/21 00:13:28;;;;;;;0.00;0.00;;;15.50;99.90;;;;;;5061034;28;20447;-74
2022/08/21 00:15:55;;;;;;;0.00;0.00;;;15.50;99.90;;;;;;5061382;28;20442;-74
2022/08/21 00:18:24;;;;;;;0.00;0.00;;;15.50;99.90;;;;;;5060774;28;20455;-74
2022/08/21 00:20:53;;;;;;;0.00;0.00;;;15.40;99.90;;;;;;5061407;28;20447;-74
2022/08/21 00:23:21;;;;;;;0.00;0.00;;;15.40;99.90;;;;;;5062078;28;20926;-72
2022/08/21 00:25:49;;;;;;;0.00;0.00;;;15.40;99.90;;;;;;5060335;28;20436;-72
2022/08/21 00:28:17;;;;;;;0.00;0.00;;;15.40;99.90;;;;;;5060616;28;20459;-71
2022/08/21 00:30:47;;;;;;;0.00;0.00;;;15.40;99.90;;;;;;5053733;28;20472;-73
2022/08/21 00:33:15;;;;;;;0.00;0.00;;;15.40;99.90;;;;;;5056845;28;20818;-79
2022/08/21 00:35:43;;;;;;;0.00;0.00;;;15.40;99.90;;;;;;5058696;28;20443;-71
2022/08/21 00:38:13;;;;;;;0.00;0.00;;;15.40;99.90;;;;;;5058747;28;20485;-70
2022/08/21 00:40:43;;;;;;;0.00;0.00;;;15.40;99.90;;;;;;5058297;28;21026;-70
2022/08/21 00:43:15;;;;;;;0.00;0.00;;;15.30;99.90;;;;;;5061081;28;20451;-77
2022/08/21 00:45:43;;;;;;;0.00;0.00;;;15.40;99.90;;;;;;5060059;28;20855;-77
2022/08/21 00:48:11;;;;;;;0.00;0.00;;;15.40;99.90;;;;;;5062256;28;20821;-80
2022/08/21 00:50:43;;;;;;;0.00;0.00;;;15.40;99.90;;;;;;5062091;28;20450;-81
2022/08/21 00:53:13;;;;;;;0.00;0.00;;;15.50;99.90;;;;;;5062149;28;20762;-81
2022/08/21 00:55:42;;;;;;;0.00;0.00;;;15.50;99.90;;;;;;5064056;28;20922;-81
2022/08/21 00:58:13;;;;;;;0.00;0.00;;;15.50;99.90;;;;;;5064303;28;20585;-81
2022/08/21 01:00:47;;;;;;;0.00;0.00;;;15.50;99.90;;;;;;5065251;28;20850;-81
2022/08/21 01:03:19;;;;;;;0.00;0.00;;;15.50;99.90;;;;;;5066433;28;20475;-80
2022/08/21 01:05:51;;;;;;;0.00;0.00;;;15.50;99.90;;;;;;5066944;28;20439;-80
2022/08/21 01:08:21;;;;;;;0.00;0.00;;;15.50;99.90;;;;;;5064115;28;20471;-80
2022/08/21 01:10:49;;;;;;;0.00;0.00;;;15.50;99.90;;;;;;5064241;28;20528;-79
2022/08/21 01:13:23;;;;;;;0.00;0.00;;;15.50;99.90;;;;;;5063502;28;20499;-77
2022/08/21 01:15:53;;;;;;;0.00;0.00;;;15.50;99.90;;;;;;5062463;28;20428;-80
2022/08/21 01:18:21;;;;;;;0.00;0.00;;;15.50;99.90;;;;;;5063404;28;20546;-78
2022/08/21 01:21:06;;;;;;;0.00;0.00;;;15.40;99.90;;;;;;5062995;28;20447;-78
2022/08/21 01:23:35;;;;;;;0.00;0.00;;;15.50;99.90;;;;;;5063493;28;20436;-78
2022/08/21 01:26:04;;;;;;;0.00;0.00;;;15.40;99.90;;;;;;5063654;28;20526;-78
2022/08/21 01:28:37;;;;;;;0.00;0.00;;;15.40;99.90;;;;;;5064354;28;20451;-78
2022/08/21 01:31:07;;;;;;;0.00;0.00;;;15.50;99.90;;;;;;5062276;28;20442;-76
2022/08/21 01:33:35;;;;;;;0.00;0.00;;;15.40;99.90;;;;;;5058544;28;20475;-73
2022/08/21 01:36:04;;;;;;;0.00;0.00;;;15.40;99.90;;;;;;5063244;28;20710;-80
2022/08/21 01:38:32;;;;;;;0.00;0.00;;;15.40;99.90;;;;;;5061309;28;20756;-72
2022/08/21 01:41:00;;;;;;;0.00;0.00;;;15.30;99.90;;;;;;5060986;28;20911;-79
2022/08/21 01:43:28;;;;;;;0.00;0.00;;;15.40;99.90;;;;;;5062814;28;20455;-77
2022/08/21 01:46:06;;;;;;;0.00;0.00;;;15.40;99.90;;;;;;5064480;28;20473;-81
2022/08/21 01:48:34;;;;;;;0.00;0.00;;;15.40;99.90;;;;;;5064678;28;20474;-81
2022/08/21 01:51:04;;;;;;;0.00;0.00;;;15.40;99.90;;;;;;5064567;28;20440;-81
2022/08/21 01:53:33;;;;;;;0.00;0.00;;;15.30;99.90;;;;;;5063294;28;20517;-79
2022/08/21 01:56:03;;;;;;;0.00;0.00;;;15.30;99.90;;;;;;5061748;28;20841;-79
2022/08/21 01:58:39;;;;;;;0.00;0.00;;;15.30;99.90;;;;;;5061922;28;20477;-79
2022/08/21 02:01:07;;;;;;;0.00;0.00;;;15.30;99.90;;;;;;5062496;28;20772;-78
2022/08/21 02:03:35;;;;;;;0.00;0.00;;;15.30;99.90;;;;;;5060463;28;20485;-79
2022/08/21 02:06:06;;;;;;;0.00;0.00;;;15.30;99.90;;;;;;5061963;28;20837;-78
2022/08/21 02:08:34;;;;;;;0.00;0.00;;;15.30;99.90;;;;;;5063068;28;20524;-82
2022/08/21 02:11:02;;;;;;;0.00;0.00;;;15.20;99.90;;;;;;5062438;28;20499;-82
2022/08/21 02:13:30;;;;;;;0.00;0.00;;;15.20;99.90;;;;;;5063698;28;20475;-84
2022/08/21 02:21:16;;;;;;;0.00;0.00;;;15.20;99.90;;;;;;5187865;23;20487;-82
2022/08/21 02:23:45;;;;;;;0.00;0.00;;;15.20;99.90;;;;;;5070909;28;20462;-82
2022/08/21 02:26:13;;;;;;;0.00;0.00;;;15.20;99.90;;;;;;5079747;28;20499;-82
2022/08/21 02:28:42;;;;;;;0.00;0.00;;;15.20;99.90;;;;;;5082098;28;20609;-82
2022/08/21 02:31:09;;;;;;;0.00;0.00;;;15.10;99.90;;;;;;5070132;28;20439;-81
2022/08/21 02:33:38;;;;;;;0.00;0.00;;;15.10;99.90;;;;;;5070763;28;20515;-81
2022/08/21 02:36:07;;;;;;;0.00;0.00;;;15.10;99.90;;;;;;5069263;28;20443;-81
2022/08/21 02:38:38;;;;;;;0.00;0.00;;;15.10;99.90;;;;;;5068600;28;20475;-82
2022/08/21 02:41:08;;;;;;;0.00;0.00;;;15.10;99.90;;;;;;5067166;28;21043;-82
2022/08/21 02:43:36;;;;;;;0.00;0.00;;;15.10;99.90;;;;;;5066214;28;20502;-82
2022/08/21 02:46:07;;;;;;;0.00;0.00;;;15.10;99.90;;;;;;5067379;28;20668;-83
2022/08/21 02:48:35;;;;;;;0.00;0.00;;;15.10;99.90;;;;;;5077379;28;20455;-82
2022/08/21 02:51:06;;;;;;;0.00;0.00;;;15.20;99.90;;;;;;5082719;28;20446;-82
2022/08/21 02:53:35;;;;;;;0.00;0.00;;;15.20;99.90;;;;;;5081237;28;20551;-82
2022/08/21 02:56:07;;;;;;;0.00;0.00;;;15.20;99.90;;;;;;5072955;28;20535;-79
2022/08/21 02:58:38;;;;;;;0.00;0.00;;;15.20;99.90;;;;;;5069436;28;20485;-83
2022/08/21 03:01:09;;;;;;;0.00;0.00;;;15.20;99.90;;;;;;5066415;28;20522;-80
2022/08/21 03:03:39;;;;;;;0.00;0.00;;;15.20;99.90;;;;;;5065418;28;20463;-80
2022/08/21 03:06:08;;;;;;;0.00;0.00;;;15.20;99.90;;;;;;5063536;28;20532;-82
2022/08/21 03:08:37;;;;;;;0.00;0.00;;;15.20;99.90;;;;;;5063082;28;20473;-83
2022/08/21 03:11:07;;;;;;;0.00;0.00;;;15.20;99.90;;;;;;5066308;28;20546;-83
2022/08/21 03:13:38;;;;;;;0.00;0.00;;;15.10;99.90;;;;;;5063028;28;21226;-82
2022/08/21 03:16:08;;;;;;;0.00;0.00;;;15.10;99.90;;;;;;5063296;28;20465;-83
2022/08/21 03:18:38;;;;;;;0.00;0.00;;;15.00;99.90;;;;;;5063603;28;20543;-82
2022/08/21 03:21:06;;;;;;;0.00;0.00;;;15.00;99.90;;;;;;5064235;28;20999;-82
2022/08/21 03:23:34;;;;;;;0.00;0.00;;;15.00;99.90;;;;;;5063532;28;20475;-82
2022/08/21 03:26:04;;;;;;;0.00;0.00;;;15.00;99.90;;;;;;5064867;28;20439;-81
2022/08/21 03:28:33;;;;;;;0.00;0.00;;;14.90;99.90;;;;;;5063284;28;20451;-85
2022/08/21 03:31:01;;;;;;;0.00;0.00;;;14.90;99.90;;;;;;5067858;28;20470;-85
2022/08/21 03:33:29;;;;;;;0.00;0.00;;;14.90;99.90;;;;;;5072108;28;20546;-83
2022/08/21 03:36:01;;;;;;;0.00;0.00;;;14.90;99.90;;;;;;5071645;28;21098;-84
2022/08/21 03:38:32;;;;;;;0.00;0.00;;;14.90;99.90;;;;;;5073781;28;20499;-83
2022/08/21 03:41:01;;;;;;;0.00;0.00;;;14.90;99.90;;;;;;5074402;28;20581;-83
2022/08/21 03:43:29;;;;;;;0.00;0.00;;;14.90;99.90;;;;;;5077226;28;21340;-83
2022/08/21 03:46:01;;;;;;;0.00;0.00;;;15.00;99.90;;;;;;5076840;28;21095;-81
2022/08/21 03:48:29;;;;;;;0.00;0.00;;;14.90;99.90;;;;;;5077919;28;20510;-83
2022/08/21 03:50:57;;;;;;;0.00;0.00;;;14.90;99.90;;;;;;5076464;28;21042;-84
2022/08/21 03:53:26;;;;;;;0.00;0.00;;;14.90;99.90;;;;;;5075191;28;20486;-82
2022/08/21 03:55:54;;;;;;;0.00;0.00;;;14.90;99.90;;;;;;5072075;28;20518;-83
2022/08/21 03:58:24;;;;;;;0.00;0.00;;;14.90;99.90;;;;;;5073276;28;20469;-80
2022/08/21 04:00:55;;;;;;;0.00;0.00;;;14.90;99.90;;;;;;5075558;28;20524;-80
2022/08/21 04:03:25;;;;;;;0.00;0.00;;;14.90;99.90;;;;;;5071894;28;20457;-82
2022/08/21 04:05:53;;;;;;;0.00;0.00;;;14.80;99.90;;;;;;5069136;28;21117;-82
2022/08/21 04:08:21;;;;;;;0.00;0.00;;;14.80;99.90;;;;;;5071228;28;20531;-82
2022/08/21 04:10:53;;;;;;;0.00;0.00;;;14.80;99.90;;;;;;5071466;28;20617;-82
2022/08/21 04:13:21;;;;;;;0.00;0.00;;;14.90;99.90;;;;;;5066019;28;20475;-81
2022/08/21 04:15:50;;;;;;;0.00;0.00;;;14.90;99.90;;;;;;5067983;28;20446;-81
2022/08/21 04:18:18;;;;;;;0.00;0.00;;;14.90;99.90;;;;;;5070240;28;20495;-83
2022/08/21 04:20:51;;;;;;;0.00;0.00;;;14.90;99.90;;;;;;5069565;28;20446;-81
2022/08/21 04:23:19;;;;;;;0.00;0.00;;;14.90;99.90;;;;;;5069791;28;20478;-82
2022/08/21 04:25:52;;;;;;;0.00;0.00;;;14.80;99.90;;;;;;5068934;28;20479;-82
2022/08/21 04:28:20;;;;;;;0.00;0.00;;;14.80;99.90;;;;;;5070153;28;20550;-82
2022/08/21 04:30:51;;;;;;;0.00;0.00;;;14.90;99.90;;;;;;5087769;28;20632;-81
2022/08/21 04:33:20;;;;;;;0.00;0.00;;;14.90;99.90;;;;;;5086459;28;20454;-82
2022/08/21 04:35:50;;;;;;;0.00;0.00;;;15.00;99.90;;;;;;5077420;28;20522;-82
2022/08/21 04:38:18;;;;;;;0.00;0.00;;;15.00;99.90;;;;;;5074993;28;20519;-80
2022/08/21 04:40:46;;;;;;;0.00;0.00;;;15.10;99.90;;;;;;5073248;28;20459;-79
2022/08/21 04:43:14;;;;;;;0.00;0.00;;;15.20;99.90;;;;;;5071890;28;20511;-80
2022/08/21 04:45:45;;;;;;;0.00;0.00;;;15.30;99.90;;;;;;5070669;28;20495;-81
2022/08/21 04:48:14;;;;;;;0.00;0.00;;;15.40;99.90;;;;;;5070857;28;20467;-80
2022/08/21 04:50:47;;;;;;;0.00;0.00;;;15.50;99.90;;;;;;5074874;28;20477;-80
2022/08/21 04:53:18;;;;;;;0.00;0.00;;;15.50;99.90;;;;;;5070087;28;20538;-82
2022/08/21 04:55:47;;;;;;;0.00;0.00;;;15.60;99.90;;;;;;5071306;28;20713;-82
2022/08/21 04:58:19;;;;;;;0.00;0.00;;;15.60;99.90;;;;;;5069368;28;20463;-82
2022/08/21 05:00:48;;;;;;;0.00;0.00;;;15.70;99.90;;;;;;5066008;28;20469;-84
2022/08/21 05:03:17;;;;;;;0.00;0.00;;;15.70;99.90;;;;;;5067308;28;20530;-84
2022/08/21 05:05:46;;;;;;;0.00;0.00;;;15.80;99.90;;;;;;5068531;28;20471;-83
2022/08/21 05:08:18;;;;;;;0.00;0.00;;;15.90;99.90;;;;;;5067388;28;20470;-83
2022/08/21 05:10:46;;;;;;;0.00;0.00;;;15.90;99.90;;;;;;5068594;28;20463;-83
2022/08/21 05:13:15;;;;;;;0.00;0.00;;;15.90;99.90;;;;;;5067647;28;20522;-80
2022/08/21 05:15:42;;;;;;;0.00;0.00;;;15.90;99.90;;;;;;5066771;28;20497;-77
2022/08/21 05:18:10;;;;;;;0.00;0.00;;;15.90;99.90;;;;;;5067312;28;20485;-77
2022/08/21 05:20:38;;;;;;;0.00;0.00;;;16.00;99.90;;;;;;5064059;28;20435;-76
2022/08/21 05:23:08;;;;;;;0.00;0.00;;;16.10;99.90;;;;;;5061426;28;20475;-77
2022/08/21 05:25:38;;;;;;;0.00;0.00;;;16.20;99.90;;;;;;5064719;28;20427;-78
2022/08/21 05:28:06;;;;;;;0.00;0.00;;;16.30;99.90;;;;;;5057921;28;20464;-79
2022/08/21 05:30:35;;;;;;;0.00;0.00;;;16.50;99.90;;;;;;5060655;28;20447;-78
2022/08/21 05:33:05;;;;;;;0.00;0.00;;;16.60;99.90;;;;;;5050787;28;20481;-77
2022/08/21 05:35:34;;;;;;;0.00;0.00;;;16.70;99.90;;;;;;5054068;28;20564;-76
2022/08/21 05:38:02;;;;;;;0.00;0.00;;;16.80;99.90;;;;;;5058965;28;20482;-78
2022/08/21 05:40:30;;;;;;;0.00;0.00;;;16.80;99.90;;;;;;5046233;28;20455;-77
2022/08/21 05:43:00;;;;;;;0.00;0.00;;;16.90;99.90;;;;;;5051306;28;20551;-75
2022/08/21 05:45:32;;;;;;;0.00;0.00;;;17.00;99.90;;;;;;5055025;28;20481;-75
2022/08/21 05:48:12;;;;;;;0.00;0.00;;;17.00;99.90;;;;;;5053372;28;20474;-76
2022/08/21 05:50:40;;;;;;;0.00;0.00;;;17.10;99.90;;;;;;5042464;28;20440;-75
2022/08/21 05:53:09;;;;;;;0.00;0.00;;;17.10;99.90;;;;;;5052285;28;20451;-74
2022/08/21 05:55:38;;;;;;;0.00;0.00;;;17.20;99.90;;;;;;5042397;28;20491;-75
2022/08/21 05:58:14;;;;;;;0.00;0.00;;;17.30;99.90;;;;;;5039143;28;20546;-72
2022/08/21 06:00:41;;;;;;;0.00;0.00;;;17.40;99.90;;;;;;5040831;28;21112;-73
2022/08/21 06:03:13;;;;;;;0.00;0.00;;;17.60;99.90;;;;;;5058304;28;20453;-74
2022/08/21 06:05:40;;;;;;;0.00;0.00;;;17.60;99.90;;;;;;5053172;28;20452;-73
2022/08/21 06:08:08;;;;;;;0.00;0.00;;;17.60;99.90;;;;;;5039905;28;20488;-73
2022/08/21 06:10:36;;;;;;;0.00;0.00;;;17.60;99.90;;;;;;5039181;28;20437;-75
2022/08/21 06:13:07;;;;;;;0.00;0.00;;;17.70;99.90;;;;;;5042311;28;20472;-77
2022/08/21 06:15:36;;;;;;;0.00;0.00;;;17.70;99.90;;;;;;5042487;28;20471;-81
2022/08/21 06:18:04;;;;;;;0.00;0.00;;;17.80;99.90;;;;;;5045033;28;20480;-73
2022/08/21 06:20:32;;;;;;;0.00;0.00;;;17.80;99.90;;;;;;5053766;28;21259;-74
2022/08/21 06:23:00;;;;;;;0.00;0.00;;;17.80;99.90;;;;;;5047582;28;21114;-71
2022/08/21 06:25:28;;;;;;;0.00;0.00;;;18.00;99.90;;;;;;5041436;28;20450;-74
2022/08/21 06:28:02;;;;;;;0.00;0.00;;;18.10;99.90;;;;;;5039051;28;20446;-71
2022/08/21 06:30:30;;;;;;;0.00;0.00;;;18.20;99.90;;;;;;5046333;28;20567;-72
2022/08/21 06:32:59;;;;;;;0.00;0.00;;;18.10;99.90;;;;;;5069131;28;20433;-72
2022/08/21 06:35:28;;;;;;;0.00;0.00;;;18.10;99.90;;;;;;5057053;28;20535;-73
2022/08/21 06:37:57;;;;;;;0.00;0.00;;;18.10;99.90;;;;;;5045373;28;21114;-72
2022/08/21 06:40:25;;;;;;;0.00;0.00;;;18.00;99.90;;;;;;5045091;28;20995;-74
2022/08/21 06:42:53;;;;;;;0.00;0.00;;;18.10;99.90;;;;;;5049542;28;20455;-74
2022/08/21 06:45:21;;;;;;;0.00;0.00;;;18.10;99.90;;;;;;5046042;28;20914;-74
2022/08/21 06:47:49;;;;;;;0.00;0.00;;;18.20;99.90;;;;;;5050475;28;20473;-70
2022/08/21 06:50:19;;;;;;;0.00;0.00;;;18.20;99.90;;;;;;5051763;28;20527;-71
2022/08/21 06:52:47;;;;;;;0.00;0.00;;;18.30;99.90;;;;;;5041895;28;20441;-71
2022/08/21 06:55:15;;;;;;;0.00;0.00;;;18.30;99.90;;;;;;5045076;28;20475;-71
2022/08/21 06:57:49;;;;;;;0.00;0.00;;;18.20;99.90;;;;;;5046755;28;20448;-71
2022/08/21 07:00:20;;;;;;;0.00;0.00;;;18.10;99.90;;;;;;5047816;28;20452;-70
2022/08/21 07:02:48;;;;;;;0.00;0.00;;;18.10;99.90;;;;;;5042261;28;20920;-71
2022/08/21 07:05:18;;;;;;;0.00;0.00;;;18.10;99.90;;;;;;5038972;28;20974;-70
2022/08/21 07:07:46;;;;;;;0.00;0.00;;;18.10;99.90;;;;;;5058362;28;20445;-70
2022/08/21 07:10:17;;;;;;;0.00;0.00;;;18.20;99.90;;;;;;5057332;28;20445;-70
2022/08/21 07:12:52;;;;;;;0.00;0.00;;;18.20;99.90;;;;;;5056583;28;20448;-71
2022/08/21 07:15:31;;;;;;;0.00;0.00;;;18.20;99.90;;;;;;5050857;28;20489;-71
2022/08/21 07:17:59;;;;;;;0.00;0.00;;;18.30;99.90;;;;;;5045904;28;20465;-71
2022/08/21 07:20:30;;;;;;;0.00;0.00;;;18.40;99.90;;;;;;5042950;28;20464;-71
2022/08/21 07:23:02;;;;;;;0.00;0.00;;;18.40;99.90;;;;;;5047756;28;20944;-72
2022/08/21 07:25:31;;;;;;;0.00;0.00;;;18.50;99.90;;;;;;5056541;28;20462;-69
2022/08/21 07:27:58;;;;;;;0.00;0.00;;;18.60;99.90;;;;;;5047738;28;20451;-71
2022/08/21 07:30:27;;;;;;;0.00;0.00;;;18.70;99.90;;;;;;5045501;28;20454;-72
2022/08/21 07:32:56;;;;;;;0.00;0.00;;;18.70;99.90;;;;;;5060974;28;20441;-72
2022/08/21 07:35:27;;;;;;;0.00;0.00;;;18.80;99.90;;;;;;5060660;28;20581;-71
2022/08/21 07:37:56;;;;;;;0.00;0.00;;;18.90;99.90;;;;;;5060858;28;20445;-71
2022/08/21 07:40:24;;;;;;;0.00;0.00;;;19.00;99.90;;;;;;5056567;28;20458;-72
2022/08/21 07:42:52;;;;;;;0.00;0.00;;;19.10;99.90;;;;;;5040689;28;20501;-71
2022/08/21 07:45:21;;;;;;;0.00;0.00;;;19.20;99.90;;;;;;5041758;28;20440;-71
2022/08/21 07:47:49;;;;;;;0.00;0.00;;;19.30;99.90;;;;;;5049371;28;20478;-71
2022/08/21 07:50:25;;;;;;;0.00;0.00;;;19.40;99.90;;;;;;5061655;28;20450;-70
2022/08/21 07:52:53;;;;;;;0.00;0.00;;;19.50;99.90;;;;;;5061109;28;20957;-72
2022/08/21 07:55:25;;;;;;;0.00;0.00;;;19.60;99.90;;;;;;5057402;28;20484;-71
2022/08/21 07:57:53;;;;;;;0.00;0.00;;;19.60;99.90;;;;;;5045692;28;20447;-71
2022/08/21 08:00:24;;;;;;;0.00;0.00;;;19.70;99.90;;;;;;5047510;28;20444;-70
2022/08/21 08:02:53;;;;;;;0.00;0.00;;;19.80;99.90;;;;;;5052282;28;20469;-70
2022/08/21 08:05:25;;;;;;;0.00;0.00;;;19.90;99.90;;;;;;5046794;28;20461;-70
2022/08/21 08:07:53;;;;;;;0.00;0.00;;;20.00;99.90;;;;;;5053002;28;20980;-70
2022/08/21 08:10:24;;;;;;;0.00;0.00;;;20.10;99.90;;;;;;5052859;28;20454;-70
2022/08/21 08:12:54;;;;;;;0.00;0.00;;;20.20;99.90;;;;;;5061872;28;20424;-70
2022/08/21 08:15:25;;;;;;;0.00;0.00;;;20.30;99.90;;;;;;5050667;28;20455;-69
2022/08/21 08:17:54;;;;;;;0.00;0.00;;;20.30;99.90;;;;;;5052399;28;20488;-77
2022/08/21 08:20:23;;;;;;;0.00;0.00;;;20.40;99.90;;;;;;5055403;28;20440;-74
2022/08/21 08:22:50;;;;;;;0.00;0.00;;;20.40;99.90;;;;;;5042163;28;20448;-73
2022/08/21 08:25:20;;;;;;;0.00;0.00;;;20.50;99.90;;;;;;5057459;28;20439;-73
2022/08/21 08:27:50;;;;;;;0.00;0.00;;;20.60;99.90;;;;;;5054928;28;20451;-73
2022/08/21 08:30:20;;;;;;;0.00;0.00;;;20.60;99.90;;;;;;5043735;28;20439;-73
2022/08/21 08:32:49;;;;;;;0.00;0.00;;;20.70;99.90;;;;;;5042672;28;20476;-73
2022/08/21 08:35:17;;;;;;;0.00;0.00;;;20.80;99.90;;;;;;5059011;28;20642;-75
2022/08/21 08:37:49;;;;;;;0.00;0.00;;;20.80;99.90;;;;;;5060928;28;20439;-73
2022/08/21 08:40:28;;;;;;;0.00;0.00;;;20.80;99.90;;;;;;5058054;28;20467;-72
2022/08/21 08:42:58;;;;;;;0.00;0.00;;;20.90;99.90;;;;;;5040921;28;20442;-73
2022/08/21 08:45:27;;;;;;;0.00;0.00;;;21.00;99.90;;;;;;5040335;28;20994;-73
2022/08/21 08:47:59;;;;;;;0.00;0.00;;;21.10;99.90;;;;;;5046885;28;20456;-73
2022/08/21 08:50:34;;;;;;;0.00;0.00;;;21.00;99.90;;;;;;5048233;28;20580;-72
2022/08/21 08:53:06;;;;;;;0.00;0.00;;;21.10;99.90;;;;;;5041182;28;20525;-73
2022/08/21 08:55:39;;;;;;;0.00;0.00;;;21.20;99.90;;;;;;5047300;28;20535;-74
2022/08/21 08:58:12;;;;;;;0.00;0.00;;;21.20;99.90;;;;;;5043360;28;20552;-73
2022/08/21 09:00:40;;;;;;;0.00;0.00;;;21.30;99.90;;;;;;5053885;28;20478;-74
2022/08/21 09:03:08;;;;;;;0.00;0.00;;;21.50;99.90;;;;;;5044705;28;20543;-73
2022/08/21 09:05:43;;;;;;;0.00;0.00;;;21.60;99.90;;;;;;5058301;28;20453;-76
2022/08/21 09:08:27;;;;;;;0.00;0.00;;;21.70;99.90;;;;;;5045313;28;20464;-75
2022/08/21 09:11:10;;;;;;;0.00;0.00;;;21.70;99.90;;;;;;5044289;28;20854;-71
2022/08/21 09:13:51;;;;;;;0.00;0.00;;;21.70;99.90;;;;;;5047923;28;20482;-71
2022/08/21 09:16:29;;;;;;;0.00;0.00;;;21.80;99.90;;;;;;5056029;28;21035;-71
2022/08/21 09:19:05;;;;;;;0.00;0.00;;;21.90;99.90;;;;;;5039783;28;20473;-70
2022/08/21 09:21:43;;;;;;;0.00;0.00;;;22.00;99.90;;;;;;5039476;28;20528;-71
2022/08/21 09:24:26;;;;;;;0.00;0.00;;;22.10;99.90;;;;;;5051282;28;20513;-71
2022/08/21 09:27:09;;;;;;;0.00;0.00;;;22.20;99.90;;;;;;5056989;28;20478;-70
2022/08/21 09:29:41;;;;;;;0.00;0.00;;;22.20;99.90;;;;;;5051533;28;20461;-71
2022/08/21 09:32:18;;;;;;;0.00;0.00;;;22.30;99.90;;;;;;5043731;28;20587;-71
2022/08/21 09:34:57;;;;;;;0.00;0.00;;;22.40;99.90;;;;;;5051719;28;20496;-71
2022/08/21 09:37:28;;;;;;;0.00;0.00;;;22.40;99.90;;;;;;5039112;28;20489;-71
2022/08/21 09:39:58;;;;;;;0.00;0.00;;;22.40;99.90;;;;;;5045849;28;20552;-71
2022/08/21 09:42:28;;;;;;;0.00;0.00;;;22.40;99.90;;;;;;5044469;28;20458;-71
2022/08/21 09:45:11;;;;;;;0.00;0.00;;;22.50;99.90;;;;;;5042799;28;20450;-71
2022/08/21 09:47:39;;;;;;;0.00;0.00;;;22.60;99.90;;;;;;5048813;28;20439;-71
2022/08/21 09:50:13;;;;;;;0.00;0.00;;;22.70;99.90;;;;;;5051931;28;20482;-70
2022/08/21 09:52:49;;;;;;;0.00;0.00;;;22.70;99.90;;;;;;5042282;28;20449;-71
2022/08/21 09:58:19;;;;;;;0.00;0.00;;;22.80;99.90;;;;;;5052085;28;20891;-71
2022/08/21 10:00:59;;;;;;;0.00;0.00;;;22.80;99.90;;;;;;5043262;28;20447;-70
2022/08/21 10:03:28;;;;;;;0.00;0.00;;;22.80;99.90;;;;;;5042455;28;21413;-71
2022/08/21 10:05:59;;;;;;;0.00;0.00;;;22.90;99.90;;;;;;5050057;28;20454;-71
2022/08/21 10:08:29;;;;;;;0.00;0.00;;;23.00;99.90;;;;;;5055081;28;20814;-71
2022/08/21 10:11:02;;;;;;;0.00;0.00;;;23.10;99.90;;;;;;5058403;28;20950;-74
2022/08/21 10:13:48;;;;;;;0.00;0.00;;;22.90;99.90;;;;;;5058904;28;20531;-73
2022/08/21 10:16:30;;;;;;;0.00;0.00;;;23.00;99.90;;;;;;5058792;28;20427;-74
2022/08/21 10:19:13;;;;;;;0.00;0.00;;;23.00;99.90;;;;;;5058147;28;20476;-73
2022/08/21 10:21:54;;;;;;;0.00;0.00;;;23.00;99.90;;;;;;5047664;28;20482;-71
2022/08/21 10:24:30;;;;;;;0.00;0.00;;;23.00;99.90;;;;;;5048800;28;20446;-72
2022/08/21 10:27:09;;;;;;;0.00;0.00;;;23.10;99.90;;;;;;5065549;28;20492;-72
2022/08/21 10:29:48;;;;;;;0.00;0.00;;;23.20;99.90;;;;;;5061277;28;21232;-72
2022/08/21 10:32:30;;;;;;;0.00;0.00;;;23.30;99.90;;;;;;5058720;28;20442;-70
2022/08/21 10:35:07;;;;;;;0.00;0.00;;;23.50;99.90;;;;;;5050505;28;21071;-70
2022/08/21 10:37:43;;;;;;;0.00;0.00;;;23.70;99.90;;;;;;5053336;28;20490;-69
2022/08/21 10:40:21;;;;;;;0.00;0.00;;;23.80;99.90;;;;;;5060454;28;20443;-70
2022/08/21 10:43:02;;;;;;;0.00;0.00;;;23.90;99.90;;;;;;5056835;28;20556;-71
2022/08/21 10:45:49;;;;;;;0.00;0.00;;;23.90;99.90;;;;;;5048861;28;20954;-72
2022/08/21 10:48:25;;;;;;;0.00;0.00;;;23.90;99.90;;;;;;5045676;28;21019;-72
2022/08/21 10:50:59;;;;;;;0.00;0.00;;;24.00;99.90;;;;;;5039728;28;20448;-72
2022/08/21 10:53:47;;;;;;;0.00;0.00;;;24.10;99.90;;;;;;5040733;28;20465;-72
2022/08/21 10:56:19;;;;;;;0.00;0.00;;;24.10;99.90;;;;;;5041897;28;20437;-71
2022/08/21 10:59:05;;;;;;;0.00;0.00;;;24.10;99.90;;;;;;5049349;28;20518;-73
2022/08/21 11:01:40;;;;;;;0.00;0.00;;;24.00;99.90;;;;;;5044260;28;21119;-73
2022/08/21 11:04:17;;;;;;;0.00;0.00;;;24.00;99.90;;;;;;5042010;28;21258;-74
2022/08/21 11:06:49;;;;;;;0.00;0.00;;;24.00;99.90;;;;;;5041480;28;20447;-72
2022/08/21 11:09:20;;;;;;;0.00;0.00;;;24.00;99.90;;;;;;5052223;28;20469;-73
2022/08/21 11:11:56;;;;;;;0.00;0.00;;;24.10;99.90;;;;;;5050435;28;20452;-74
2022/08/21 11:14:48;;;;;;;0.00;0.00;;;24.10;99.90;;;;;;5048140;28;20470;-75
2022/08/21 11:17:23;;;;;;;0.00;0.00;;;24.10;99.90;;;;;;5050024;28;20484;-74
2022/08/21 11:19:58;;;;;;;0.00;0.00;;;24.00;99.90;;;;;;5051394;28;20706;-75
2022/08/21 11:22:34;;;;;;;0.00;0.00;;;24.10;99.90;;;;;;5050047;28;20465;-75
2022/08/21 11:25:07;;;;;;;0.00;0.00;;;24.20;99.90;;;;;;5053955;28;21006;-74
2022/08/21 11:27:41;;;;;;;0.00;0.00;;;24.10;99.90;;;;;;5054841;28;20447;-75
2022/08/21 11:30:10;;;;;;;0.00;0.00;;;24.10;99.90;;;;;;5055620;28;20439;-75
2022/08/21 11:32:59;;;;;;;0.00;0.00;;;24.10;99.90;;;;;;5040221;28;21124;-76
2022/08/21 11:35:35;;;;;;;0.00;0.00;;;24.10;99.90;;;;;;5035669;28;20508;-74
2022/08/21 11:38:22;;;;;;;0.00;0.00;;;24.20;99.90;;;;;;5037521;28;20490;-74
2022/08/21 11:41:13;;;;;;;0.00;0.00;;;24.20;99.90;;;;;;5037593;28;20444;-74
2022/08/21 11:43:45;;;;;;;0.00;0.00;;;24.30;99.90;;;;;;5044397;28;20482;-74
2022/08/21 11:46:21;;;;;;;0.00;0.00;;;24.20;99.90;;;;;;5048722;28;20448;-74
2022/08/21 11:49:00;;;;;;;0.00;0.00;;;24.10;99.90;;;;;;5052149;28;20951;-75
2022/08/21 11:51:37;;;;;;;0.00;0.00;;;24.10;99.90;;;;;;5042277;28;20442;-72
2022/08/21 11:54:14;;;;;;;0.00;0.00;;;24.00;99.90;;;;;;5048161;28;20562;-73
2022/08/21 11:56:47;;;;;;;0.00;0.00;;;23.80;99.90;;;;;;5051467;28;20438;-75
2022/08/21 11:59:23;;;;;;;0.00;0.00;;;23.90;99.90;;;;;;5049968;28;20474;-74
2022/08/21 12:01:53;;;;;;;0.00;0.00;;;24.00;99.90;;;;;;5051288;28;20436;-75
2022/08/21 12:04:27;;;;;;;0.00;0.00;;;24.10;99.90;;;;;;5052593;28;21054;-73
2022/08/21 12:06:57;;;;;;;0.00;0.00;;;24.20;99.90;;;;;;5052652;28;20456;-74
2022/08/21 12:09:34;;;;;;;0.00;0.00;;;24.10;99.90;;;;;;5058579;28;20475;-73
2022/08/21 12:12:06;;;;;;;0.00;0.00;;;24.20;99.90;;;;;;5042232;28;20530;-75
2022/08/21 12:14:39;;;;;;;0.00;0.00;;;24.20;99.90;;;;;;5045800;28;20538;-74
2022/08/21 12:17:08;;;;;;;0.00;0.00;;;24.20;99.90;;;;;;5049673;28;20502;-74
2022/08/21 12:19:39;;;;;;;0.00;0.00;;;24.30;99.90;;;;;;5047498;28;20982;-73
2022/08/21 12:22:14;;;;;;;0.00;0.00;;;24.40;99.90;;;;;;5049376;28;20468;-73
2022/08/21 12:24:46;;;;;;;0.00;0.00;;;24.60;99.90;;;;;;5052288;28;20459;-74
2022/08/21 12:27:25;;;;;;;0.00;0.00;;;24.70;99.90;;;;;;5049319;28;20491;-75
2022/08/21 12:29:56;;;;;;;0.00;0.00;;;24.80;99.90;;;;;;5050400;28;20467;-77
2022/08/21 12:32:28;;;;;;;0.00;0.00;;;24.80;99.90;;;;;;5049590;28;20964;-77
2022/08/21 12:35:03;;;;;;;0.00;0.00;;;24.80;99.90;;;;;;5049770;28;20941;-76
2022/08/21 12:37:39;;;;;;;0.00;0.00;;;24.80;99.90;;;;;;5052475;28;20525;-79
2022/08/21 12:40:24;;;;;;;0.00;0.00;;;24.70;99.90;;;;;;5053286;28;20643;-76
2022/08/21 12:42:55;;;;;;;0.00;0.00;;;24.50;99.90;;;;;;5041908;28;20459;-72
2022/08/21 12:45:31;;;;;;;0.00;0.00;;;24.50;99.90;;;;;;5055227;28;20454;-75
2022/08/21 12:48:06;;;;;;;0.00;0.00;;;24.70;99.90;;;;;;5045645;28;20426;-75
2022/08/21 12:50:39;;;;;;;0.00;0.00;;;24.70;99.90;;;;;;5043221;28;20525;-74
2022/08/21 12:53:14;;;;;;;0.00;0.00;;;24.80;99.90;;;;;;5039220;28;21186;-74
2022/08/21 12:55:48;;;;;;;0.00;0.00;;;24.70;99.90;;;;;;5039875;28;20453;-74
2022/08/21 12:58:20;;;;;;;0.00;0.00;;;24.70;99.90;;;;;;5039766;28;21263;-74
2022/08/21 13:00:53;;;;;;;0.00;0.00;;;24.70;99.90;;;;;;5040014;28;20439;-75
2022/08/21 13:03:22;;;;;;;0.00;0.00;;;24.60;99.90;;;;;;5039363;28;20522;-73
2022/08/21 13:05:53;;;;;;;0.00;0.00;;;24.70;99.90;;;;;;5044392;28;20512;-74
2022/08/21 13:08:25;;;;;;;0.00;0.00;;;24.70;99.90;;;;;;5059803;28;20476;-74
2022/08/21 13:10:59;;;;;;;0.00;0.00;;;24.80;99.90;;;;;;5060482;28;20444;-72
2022/08/21 13:13:42;;;;;;;0.00;0.00;;;24.80;99.90;;;;;;5061427;28;20618;-70
2022/08/21 13:16:23;;;;;;;0.00;0.00;;;24.80;99.90;;;;;;5058116;28;20463;-75
2022/08/21 13:18:58;;;;;;;0.00;0.00;;;24.80;99.90;;;;;;5060315;28;20473;-74